createdAt,value
2018-03-07T00:02:25.304Z,9.30
2018-03-07T00:04:54.152Z,9.40
2018-03-07T00:07:23.001Z,9.50
2018-03-07T00:09:51.852Z,9.63
2018-03-07T00:12:20.736Z,10.17
2018-03-07T00:14:49.592Z,8.90
2018-03-07T00:17:18.400Z,9.63
2018-03-07T00:19:47.248Z,9.40
2018-03-07T00:22:16.073Z,8.63
2018-03-07T00:24:44.920Z,8.93
2018-03-07T00:27:13.745Z,9.43
2018-03-07T00:29:42.605Z,8.53
2018-03-07T00:32:11.429Z,8.50
2018-03-07T00:34:40.295Z,8.07
2018-03-07T00:37:09.152Z,7.90
2018-03-07T00:39:37.977Z,8.23
2018-03-07T00:42:06.849Z,7.80
2018-03-07T00:44:35.669Z,7.07
2018-03-07T00:47:13.264Z,6.60
2018-03-07T00:49:42.108Z,7.43
2018-03-07T00:52:10.941Z,6.87
2018-03-07T00:54:39.797Z,6.57
2018-03-07T00:57:09.032Z,6.63
2018-03-07T00:59:37.885Z,6.37
2018-03-07T01:02:06.718Z,6.70
2018-03-07T01:04:35.537Z,6.50
2018-03-07T01:07:04.396Z,6.47
2018-03-07T01:09:33.211Z,6.33
2018-03-07T01:12:02.080Z,6.43
2018-03-07T01:14:30.939Z,6.77
2018-03-07T01:16:59.757Z,5.83
2018-03-07T01:19:28.585Z,6.70
2018-03-07T01:21:57.447Z,6.27
2018-03-07T01:24:26.294Z,6.13
2018-03-07T01:26:55.152Z,6.73
2018-03-07T01:29:23.979Z,6.10
2018-03-07T01:31:52.821Z,6.13
2018-03-07T01:34:21.673Z,6.40
2018-03-07T01:36:50.502Z,5.97
2018-03-07T01:39:19.369Z,6.20
2018-03-07T01:41:48.188Z,6.37
2018-03-07T01:44:17.045Z,6.03
2018-03-07T01:46:45.881Z,6.23
2018-03-07T01:49:14.701Z,6.47
2018-03-07T01:51:49.388Z,5.73
2018-03-07T01:54:18.219Z,6.07
2018-03-07T01:56:47.853Z,5.60
2018-03-07T01:59:16.678Z,5.70
2018-03-07T02:01:45.525Z,5.83
2018-03-07T02:04:14.370Z,5.43
2018-03-07T02:06:43.216Z,5.40
2018-03-07T02:09:12.040Z,5.87
2018-03-07T02:11:40.893Z,5.80
2018-03-07T02:14:09.731Z,5.43
2018-03-07T02:16:38.559Z,5.63
2018-03-07T02:19:07.418Z,5.10
2018-03-07T02:21:36.248Z,5.53
2018-03-07T02:24:05.089Z,5.97
2018-03-07T02:26:33.920Z,5.67
2018-03-07T02:29:02.762Z,5.13
2018-03-07T02:31:31.620Z,5.73
2018-03-07T02:34:00.453Z,6.00
2018-03-07T02:36:32.214Z,5.77
2018-03-07T02:39:01.056Z,5.87
2018-03-07T02:41:29.916Z,6.10
2018-03-07T02:43:58.769Z,6.00
2018-03-07T02:46:27.590Z,5.83
2018-03-07T02:48:56.449Z,5.73
2018-03-07T02:51:25.274Z,6.07
2018-03-07T02:53:54.195Z,6.13
2018-03-07T02:56:22.986Z,5.87
2018-03-07T02:58:51.808Z,5.77
2018-03-07T03:01:20.668Z,6.70
2018-03-07T03:03:49.488Z,6.40
2018-03-07T03:06:18.340Z,6.33
2018-03-07T03:08:47.201Z,6.53
2018-03-07T03:11:16.051Z,6.23
2018-03-07T03:13:44.888Z,5.87
2018-03-07T03:16:13.705Z,6.80
2018-03-07T03:18:42.560Z,6.43
2018-03-07T03:21:11.406Z,6.13
2018-03-07T03:23:40.216Z,5.93
2018-03-07T03:26:09.090Z,5.87
2018-03-07T03:28:37.899Z,6.13
2018-03-07T03:31:06.731Z,6.60
2018-03-07T03:33:35.573Z,6.37
2018-03-07T03:36:04.398Z,6.60
2018-03-07T03:38:33.179Z,6.23
2018-03-07T03:41:01.989Z,6.90
2018-03-07T03:43:30.804Z,6.27
2018-03-07T03:45:59.623Z,7.07
2018-03-07T03:48:28.431Z,6.57
2018-03-07T03:50:57.219Z,7.10
2018-03-07T03:53:26.111Z,6.47
2018-03-07T03:55:54.911Z,6.47
2018-03-07T03:58:23.732Z,6.47
2018-03-07T04:00:52.586Z,7.10
2018-03-07T04:03:21.406Z,6.90
2018-03-07T04:05:50.288Z,6.27
2018-03-07T04:08:19.175Z,6.27
2018-03-07T04:10:47.996Z,6.27
2018-03-07T04:13:16.792Z,6.37
2018-03-07T04:15:45.602Z,6.77
2018-03-07T04:18:14.446Z,6.13
2018-03-07T04:20:43.251Z,6.53
2018-03-07T04:23:12.072Z,6.07
2018-03-07T04:25:40.874Z,5.67
2018-03-07T04:28:09.685Z,6.47
2018-03-07T04:30:38.496Z,6.10
2018-03-07T04:33:07.320Z,6.13
2018-03-07T04:35:36.127Z,5.87
2018-03-07T04:38:04.944Z,5.97
2018-03-07T04:40:33.755Z,5.63
2018-03-07T04:43:02.571Z,5.80
2018-03-07T04:45:31.372Z,6.43
2018-03-07T04:48:00.195Z,5.47
2018-03-07T04:53:10.179Z,6.00
2018-03-07T04:55:38.987Z,5.90
2018-03-07T04:58:07.784Z,5.63
2018-03-07T05:00:36.592Z,5.77
2018-03-07T05:03:05.394Z,6.43
2018-03-07T05:05:34.283Z,6.43
2018-03-07T05:08:03.095Z,6.27
2018-03-07T05:10:32.129Z,7.03
2018-03-07T05:13:00.866Z,6.90
2018-03-07T05:15:29.660Z,6.30
2018-03-07T05:17:58.477Z,6.47
2018-03-07T05:20:27.304Z,7.07
2018-03-07T05:22:56.119Z,6.77
2018-03-07T05:25:24.934Z,6.83
2018-03-07T05:27:53.731Z,7.07
2018-03-07T05:30:22.629Z,7.23
2018-03-07T05:32:51.430Z,7.83
2018-03-07T05:35:20.244Z,7.43
2018-03-07T05:37:49.229Z,7.57
2018-03-07T05:40:18.046Z,7.60
2018-03-07T05:42:46.835Z,7.60
2018-03-07T05:45:15.887Z,7.47
2018-03-07T05:47:44.698Z,7.63
2018-03-07T05:50:13.591Z,7.93
2018-03-07T05:52:42.399Z,9.13
2018-03-07T05:55:11.274Z,8.67
2018-03-07T05:57:40.070Z,8.70
2018-03-07T06:00:08.922Z,8.10
2018-03-07T06:02:37.746Z,8.80
2018-03-07T06:05:07.218Z,8.73
2018-03-07T06:07:36.018Z,8.53
2018-03-07T06:10:04.815Z,8.70
2018-03-07T06:12:33.610Z,8.10
2018-03-07T06:15:02.424Z,8.07
2018-03-07T06:17:31.230Z,8.03
2018-03-07T06:20:00.048Z,7.83
2018-03-07T06:22:28.878Z,8.23
2018-03-07T06:24:57.675Z,8.63
2018-03-07T06:27:26.495Z,7.50
2018-03-07T06:29:55.321Z,8.17
2018-03-07T06:32:24.188Z,7.73
2018-03-07T06:34:52.985Z,7.60
2018-03-07T06:37:21.791Z,7.90
2018-03-07T06:39:50.602Z,7.63
2018-03-07T06:42:19.393Z,7.53
2018-03-07T06:44:48.195Z,7.00
2018-03-07T06:47:17.013Z,6.63
2018-03-07T06:49:45.827Z,6.27
2018-03-07T06:52:14.690Z,6.30
2018-03-07T06:54:43.492Z,6.50
2018-03-07T06:57:12.855Z,6.17
2018-03-07T06:59:41.715Z,6.10
2018-03-07T07:02:10.532Z,5.87
2018-03-07T07:04:39.323Z,6.10
2018-03-07T07:07:08.203Z,6.23
2018-03-07T07:09:36.994Z,5.90
2018-03-07T07:12:05.811Z,6.30
2018-03-07T07:14:34.687Z,5.87
2018-03-07T07:17:03.497Z,6.10
2018-03-07T07:19:32.292Z,5.73
2018-03-07T07:22:01.124Z,5.07
2018-03-07T07:24:29.912Z,5.50
2018-03-07T07:26:58.708Z,5.20
2018-03-07T07:29:27.518Z,5.37
2018-03-07T07:31:56.330Z,4.97
2018-03-07T07:34:25.117Z,4.90
2018-03-07T07:36:53.914Z,5.17
2018-03-07T07:39:22.703Z,5.20
2018-03-07T07:41:51.607Z,4.33
2018-03-07T07:44:20.393Z,4.70
2018-03-07T07:46:49.302Z,3.83
2018-03-07T07:49:18.107Z,4.10
2018-03-07T07:51:46.931Z,3.83
2018-03-07T07:54:15.774Z,3.50
2018-03-07T07:56:44.567Z,3.37
2018-03-07T07:59:13.365Z,3.10
2018-03-07T08:01:42.255Z,3.17
2018-03-07T08:04:11.146Z,2.90
2018-03-07T08:06:39.927Z,2.70
2018-03-07T08:09:08.739Z,2.80
2018-03-07T08:11:37.629Z,2.70
2018-03-07T08:14:06.432Z,2.73
2018-03-07T08:16:35.234Z,2.60
2018-03-07T08:19:04.026Z,3.20
2018-03-07T08:21:32.848Z,3.93
2018-03-07T08:24:01.640Z,10.33
2018-03-07T08:26:30.447Z,9.23
2018-03-07T08:28:59.247Z,3.83
2018-03-07T08:31:28.083Z,3.30
2018-03-07T08:33:56.971Z,3.43
2018-03-07T08:36:25.760Z,3.47
2018-03-07T08:38:54.569Z,2.10
2018-03-07T08:41:23.366Z,2.17
2018-03-07T08:43:52.170Z,6.70
2018-03-07T08:46:20.985Z,36.90
2018-03-07T08:48:49.798Z,20.97
2018-03-07T08:51:18.590Z,15.30
2018-03-07T08:53:47.413Z,17.07
2018-03-07T08:56:16.221Z,6.90
2018-03-07T08:58:45.030Z,2.20
2018-03-07T09:01:13.910Z,1.10
2018-03-07T09:03:42.690Z,2.10
2018-03-07T09:06:11.499Z,1.20
2018-03-07T09:08:40.283Z,0.80
2018-03-07T09:11:09.090Z,0.90
2018-03-07T09:13:38.544Z,0.60
2018-03-07T09:16:07.322Z,0.67
2018-03-07T09:18:36.120Z,0.60
2018-03-07T09:21:04.935Z,0.90
2018-03-07T09:23:33.742Z,0.70
2018-03-07T09:26:02.642Z,0.73
2018-03-07T09:28:31.444Z,0.80
2018-03-07T09:31:00.246Z,0.80
2018-03-07T09:33:29.054Z,0.80
2018-03-07T09:35:57.913Z,0.63
2018-03-07T09:38:26.723Z,0.93
2018-03-07T09:40:55.498Z,1.80
2018-03-07T09:43:24.411Z,2.20
2018-03-07T09:45:53.190Z,1.67
2018-03-07T09:48:21.995Z,0.97
2018-03-07T09:50:50.797Z,0.83
2018-03-07T09:53:19.589Z,0.87
2018-03-07T09:55:48.395Z,0.90
2018-03-07T09:58:17.199Z,1.00
2018-03-07T10:00:46.046Z,1.07
2018-03-07T10:03:14.907Z,1.30
2018-03-07T10:05:43.694Z,1.50
2018-03-07T10:08:12.525Z,1.60
2018-03-07T10:10:41.419Z,23.70
2018-03-07T10:13:10.218Z,12.77
2018-03-07T10:15:39.022Z,2.47
2018-03-07T10:18:07.815Z,3.60
2018-03-07T10:20:36.695Z,2.13
2018-03-07T10:23:05.507Z,1.50
2018-03-07T10:25:34.389Z,0.80
2018-03-07T10:28:03.192Z,1.03
2018-03-07T10:30:32.070Z,0.80
2018-03-07T10:33:01.559Z,0.87
2018-03-07T10:35:30.340Z,0.93
2018-03-07T10:37:59.166Z,0.90
2018-03-07T10:40:27.961Z,1.20
2018-03-07T10:42:56.763Z,1.37
2018-03-07T10:45:26.361Z,1.70
2018-03-07T10:47:55.138Z,0.97
2018-03-07T10:50:23.952Z,1.47
2018-03-07T10:52:52.734Z,2.67
2018-03-07T10:55:21.542Z,1.40
2018-03-07T10:57:50.338Z,1.90
2018-03-07T11:00:24.896Z,1.40
2018-03-07T11:02:53.701Z,0.73
2018-03-07T11:05:22.506Z,0.50
2018-03-07T11:07:51.397Z,1.13
2018-03-07T11:10:20.219Z,0.80
2018-03-07T11:12:49.042Z,0.60
2018-03-07T11:15:17.823Z,0.40
2018-03-07T11:17:47.646Z,0.30
2018-03-07T11:20:16.468Z,0.50
2018-03-07T11:22:45.270Z,0.40
2018-03-07T11:25:14.101Z,0.30
2018-03-07T11:27:43.519Z,0.60
2018-03-07T11:30:12.322Z,0.50
2018-03-07T11:32:41.116Z,0.40
2018-03-07T11:35:10.011Z,0.53
2018-03-07T11:37:39.226Z,0.40
2018-03-07T11:40:08.226Z,0.73
2018-03-07T11:42:37.032Z,0.90
2018-03-07T11:45:05.893Z,0.40
2018-03-07T11:47:34.678Z,0.50
2018-03-07T11:50:03.462Z,0.60
2018-03-07T11:52:32.379Z,0.40
2018-03-07T11:55:01.182Z,0.50
2018-03-07T11:57:29.994Z,0.37
2018-03-07T11:59:58.845Z,0.40
2018-03-07T12:02:27.738Z,0.60
2018-03-07T12:04:56.630Z,0.50
2018-03-07T12:07:25.530Z,0.50
2018-03-07T12:09:54.329Z,0.60
2018-03-07T12:15:05.231Z,0.70
2018-03-07T12:17:34.070Z,0.50
2018-03-07T12:20:02.899Z,0.30
2018-03-07T12:22:31.706Z,0.53
2018-03-07T12:25:00.505Z,0.60
2018-03-07T12:27:29.382Z,0.60
2018-03-07T12:29:58.199Z,0.50
2018-03-07T12:32:27.014Z,0.50
2018-03-07T12:34:55.857Z,0.60
2018-03-07T12:37:24.755Z,0.60
2018-03-07T12:39:53.574Z,1.10
2018-03-07T12:42:22.443Z,0.60
2018-03-07T12:44:51.230Z,0.50
2018-03-07T12:47:20.030Z,0.50
2018-03-07T12:49:48.923Z,0.70
2018-03-07T12:52:17.707Z,0.60
2018-03-07T12:54:46.518Z,0.60
2018-03-07T12:57:15.318Z,0.80
2018-03-07T12:59:44.122Z,0.93
2018-03-07T13:02:13.003Z,0.67
2018-03-07T13:04:41.802Z,0.60
2018-03-07T13:07:10.581Z,0.50
2018-03-07T13:09:39.380Z,0.83
2018-03-07T13:12:08.178Z,0.93
2018-03-07T13:14:37.055Z,0.60
2018-03-07T13:17:06.039Z,0.70
2018-03-07T13:19:34.947Z,0.70
2018-03-07T13:22:03.912Z,0.60
2018-03-07T13:24:32.739Z,0.67
2018-03-07T13:27:01.632Z,0.90
2018-03-07T13:29:30.434Z,0.70
2018-03-07T13:31:59.322Z,0.80
2018-03-07T13:34:28.185Z,0.77
2018-03-07T13:36:56.978Z,1.25
2018-03-07T13:39:25.775Z,0.50
2018-03-07T13:41:54.575Z,0.60
2018-03-07T13:44:23.366Z,0.70
2018-03-07T13:46:52.169Z,0.70
2018-03-07T13:49:20.958Z,1.03
2018-03-07T13:51:49.770Z,1.90
2018-03-07T13:54:18.560Z,2.63
2018-03-07T13:56:47.457Z,2.77
2018-03-07T13:59:16.771Z,0.80
2018-03-07T14:01:45.563Z,0.70
2018-03-07T14:04:14.348Z,1.20
2018-03-07T14:06:43.240Z,1.50
2018-03-07T14:09:12.240Z,0.93
2018-03-07T14:11:41.029Z,2.73
2018-03-07T14:14:09.815Z,1.30
2018-03-07T14:16:38.627Z,0.70
2018-03-07T14:19:07.476Z,0.80
2018-03-07T14:21:36.250Z,1.23
2018-03-07T14:24:05.040Z,0.80
2018-03-07T14:26:33.855Z,0.57
2018-03-07T14:29:02.634Z,0.77
2018-03-07T14:31:31.421Z,0.67
2018-03-07T14:34:00.280Z,1.00
2018-03-07T14:36:29.082Z,0.90
2018-03-07T14:38:57.870Z,0.90
2018-03-07T14:41:26.926Z,1.00
2018-03-07T14:43:55.710Z,0.90
2018-03-07T14:46:24.506Z,0.80
2018-03-07T14:48:53.292Z,0.70
2018-03-07T14:51:22.120Z,0.60
2018-03-07T14:53:50.902Z,0.60
2018-03-07T14:56:19.710Z,0.70
2018-03-07T14:58:48.602Z,0.63
2018-03-07T15:01:17.406Z,0.60
2018-03-07T15:03:46.194Z,0.60
2018-03-07T15:06:15.004Z,0.63
2018-03-07T15:08:43.778Z,0.90
2018-03-07T15:11:12.583Z,0.70
2018-03-07T15:13:41.393Z,0.60
2018-03-07T15:16:10.183Z,0.60
2018-03-07T15:18:39.051Z,1.00
2018-03-07T15:21:07.858Z,0.90
2018-03-07T15:23:36.735Z,0.80
2018-03-07T15:26:05.519Z,0.60
2018-03-07T15:28:34.339Z,0.70
2018-03-07T15:31:03.122Z,0.57
2018-03-07T15:33:31.942Z,0.57
2018-03-07T15:36:00.734Z,0.70
2018-03-07T15:38:29.525Z,0.60
2018-03-07T15:40:58.401Z,0.60
2018-03-07T15:43:27.178Z,0.90
2018-03-07T15:45:55.975Z,0.60
2018-03-07T15:48:24.784Z,0.70
2018-03-07T15:50:53.611Z,0.77
2018-03-07T15:53:23.070Z,0.87
2018-03-07T15:58:28.067Z,0.90
2018-03-07T16:00:56.867Z,0.67
2018-03-07T16:03:25.682Z,0.70
2018-03-07T16:05:54.471Z,0.90
2018-03-07T16:08:23.274Z,0.83
2018-03-07T16:10:52.090Z,1.20
2018-03-07T16:13:20.891Z,1.10
2018-03-07T16:15:49.729Z,0.70
2018-03-07T16:18:18.623Z,0.70
2018-03-07T16:20:47.414Z,0.50
2018-03-07T16:23:16.230Z,0.57
2018-03-07T16:25:45.127Z,0.60
2018-03-07T16:28:14.019Z,1.23
2018-03-07T16:30:42.839Z,1.50
2018-03-07T16:33:11.642Z,1.10
2018-03-07T16:35:40.435Z,0.80
2018-03-07T16:38:09.211Z,0.87
2018-03-07T16:40:38.015Z,0.50
2018-03-07T16:43:06.909Z,0.70
2018-03-07T16:45:35.811Z,0.80
2018-03-07T16:48:04.603Z,0.70
2018-03-07T16:50:33.445Z,0.80
2018-03-07T16:53:02.263Z,1.00
2018-03-07T16:55:31.065Z,0.90
2018-03-07T16:58:00.032Z,0.70
2018-03-07T17:00:28.819Z,0.70
2018-03-07T17:02:57.606Z,0.97
2018-03-07T17:05:26.411Z,0.80
2018-03-07T17:07:55.418Z,0.57
2018-03-07T17:10:24.245Z,0.80
2018-03-07T17:12:53.115Z,0.60
2018-03-07T17:15:21.990Z,0.60
2018-03-07T17:17:50.794Z,0.40
2018-03-07T17:20:19.679Z,0.70
2018-03-07T17:22:48.476Z,1.43
2018-03-07T17:25:17.283Z,1.27
2018-03-07T17:27:46.077Z,0.97
2018-03-07T17:30:14.950Z,1.37
2018-03-07T17:32:43.753Z,3.03
2018-03-07T17:35:12.574Z,4.43
2018-03-07T17:37:41.377Z,4.57
2018-03-07T17:40:10.190Z,3.77
2018-03-07T17:42:38.983Z,2.70
2018-03-07T17:45:07.883Z,1.70
2018-03-07T17:47:36.737Z,3.10
2018-03-07T17:50:05.564Z,2.20
2018-03-07T17:52:34.379Z,1.77
2018-03-07T17:55:03.187Z,1.47
2018-03-07T17:57:31.979Z,0.90
2018-03-07T18:00:00.773Z,0.63
2018-03-07T18:02:29.558Z,1.30
2018-03-07T18:04:58.398Z,2.27
2018-03-07T18:07:27.255Z,1.37
2018-03-07T18:09:56.154Z,1.90
2018-03-07T18:12:25.027Z,1.50
2018-03-07T18:14:53.939Z,1.83
2018-03-07T18:17:22.758Z,1.00
2018-03-07T18:19:51.569Z,0.60
2018-03-07T18:22:20.379Z,0.90
2018-03-07T18:24:49.226Z,0.70
2018-03-07T18:27:18.031Z,0.90
2018-03-07T18:29:46.830Z,0.70
2018-03-07T18:32:15.646Z,0.80
2018-03-07T18:34:44.438Z,0.80
2018-03-07T18:37:13.282Z,0.50
2018-03-07T18:39:42.086Z,0.73
2018-03-07T18:42:10.907Z,0.73
2018-03-07T18:44:39.789Z,0.40
2018-03-07T18:47:08.558Z,1.53
2018-03-07T18:49:37.398Z,1.00
2018-03-07T18:52:06.186Z,2.83
2018-03-07T18:54:35.003Z,2.13
2018-03-07T18:57:03.807Z,1.70
2018-03-07T18:59:32.618Z,2.40
2018-03-07T19:02:01.398Z,2.10
2018-03-07T19:04:30.229Z,1.90
2018-03-07T19:06:59.014Z,3.80
2018-03-07T19:09:27.798Z,4.57
2018-03-07T19:11:56.610Z,3.23
2018-03-07T19:14:25.552Z,2.30
2018-03-07T19:16:54.310Z,2.70
2018-03-07T19:19:23.105Z,2.07
2018-03-07T19:21:51.979Z,2.23
2018-03-07T19:24:20.868Z,2.60
2018-03-07T19:26:49.655Z,2.13
2018-03-07T19:29:18.554Z,2.70
2018-03-07T19:31:47.447Z,2.53
2018-03-07T19:34:16.254Z,2.83
2018-03-07T19:36:45.072Z,2.93
2018-03-07T19:39:13.902Z,2.50
2018-03-07T19:41:42.785Z,2.03
2018-03-07T19:44:11.602Z,1.90
2018-03-07T19:46:40.392Z,2.07
2018-03-07T19:49:09.171Z,2.23
2018-03-07T19:51:37.974Z,2.43
2018-03-07T19:54:06.782Z,2.10
2018-03-07T19:56:35.674Z,2.10
2018-03-07T19:59:04.478Z,2.30
2018-03-07T20:01:33.361Z,1.93
2018-03-07T20:04:02.178Z,2.13
2018-03-07T20:06:31.057Z,1.90
2018-03-07T20:08:59.854Z,2.30
2018-03-07T20:11:28.663Z,1.93
2018-03-07T20:13:57.461Z,2.10
2018-03-07T20:16:26.291Z,2.00
2018-03-07T20:18:55.126Z,2.13
2018-03-07T20:21:23.928Z,1.93
2018-03-07T20:23:52.742Z,2.17
2018-03-07T20:26:21.555Z,2.43
2018-03-07T20:28:50.339Z,2.27
2018-03-07T20:31:19.152Z,4.07
2018-03-07T20:33:47.971Z,12.13
2018-03-07T20:36:16.775Z,12.10
2018-03-07T20:38:45.602Z,14.67
2018-03-07T20:41:14.511Z,10.47
2018-03-07T20:43:43.340Z,14.57
2018-03-07T20:46:12.142Z,3.40
2018-03-07T20:48:41.672Z,8.67
2018-03-07T20:51:10.561Z,13.60
2018-03-07T20:53:39.349Z,24.83
2018-03-07T20:56:08.147Z,15.80
2018-03-07T20:58:37.041Z,17.33
2018-03-07T21:01:05.846Z,17.10
2018-03-07T21:03:34.664Z,6.83
2018-03-07T21:06:03.474Z,5.63
2018-03-07T21:08:32.286Z,4.87
2018-03-07T21:11:01.106Z,3.70
2018-03-07T21:13:29.918Z,2.93
2018-03-07T21:15:58.704Z,2.50
2018-03-07T21:18:27.545Z,1.80
2018-03-07T21:20:56.338Z,1.60
2018-03-07T21:23:25.200Z,1.30
2018-03-07T21:25:54.081Z,2.40
2018-03-07T21:28:22.967Z,1.60
2018-03-07T21:30:52.521Z,1.70
2018-03-07T21:33:21.318Z,1.67
2018-03-07T21:35:50.130Z,1.80
2018-03-07T21:38:18.957Z,2.67
2018-03-07T21:40:47.846Z,2.53
2018-03-07T21:43:16.743Z,2.33
2018-03-07T21:45:45.710Z,1.80
2018-03-07T21:48:14.499Z,1.90
2018-03-07T21:50:43.273Z,1.80
2018-03-07T21:53:12.124Z,1.77
2018-03-07T21:55:41.010Z,1.40
2018-03-07T21:58:09.797Z,1.27
2018-03-07T22:00:38.587Z,1.30
2018-03-07T22:03:07.387Z,1.37
2018-03-07T22:05:36.207Z,1.63
2018-03-07T22:08:05.272Z,1.40
2018-03-07T22:10:34.075Z,1.30
2018-03-07T22:13:02.892Z,1.20
2018-03-07T22:15:31.679Z,1.30
2018-03-07T22:18:00.506Z,1.30
2018-03-07T22:20:29.309Z,1.40
2018-03-07T22:22:58.146Z,1.40
2018-03-07T22:25:26.939Z,1.30
2018-03-07T22:27:55.834Z,1.50
2018-03-07T22:30:24.899Z,1.67
2018-03-07T22:32:53.736Z,1.60
2018-03-07T22:35:22.548Z,1.53
2018-03-07T22:37:51.414Z,1.70
2018-03-07T22:40:20.224Z,1.80
2018-03-07T22:42:49.015Z,1.80
2018-03-07T22:45:17.894Z,1.80
2018-03-07T22:47:46.686Z,1.73
2018-03-07T22:50:15.582Z,1.87
2018-03-07T22:52:44.378Z,1.97
2018-03-07T22:55:13.182Z,2.80
2018-03-07T22:57:42.629Z,7.83
2018-03-07T23:00:33.156Z,5.40
2018-03-07T23:03:02.063Z,3.00
2018-03-07T23:05:30.858Z,3.00
2018-03-07T23:07:59.756Z,2.30
2018-03-07T23:10:28.546Z,2.67
2018-03-07T23:12:57.360Z,2.13
2018-03-07T23:15:27.054Z,2.23
2018-03-07T23:17:55.868Z,2.20
2018-03-07T23:20:24.663Z,2.20
2018-03-07T23:22:53.537Z,1.97
2018-03-07T23:25:22.335Z,2.20
2018-03-07T23:27:51.222Z,3.10
2018-03-07T23:30:20.028Z,2.07
2018-03-07T23:32:48.849Z,3.30
2018-03-07T23:35:17.653Z,6.10
2018-03-07T23:37:46.502Z,3.50
2018-03-07T23:40:15.303Z,5.40
2018-03-07T23:42:45.737Z,3.60
2018-03-07T23:45:14.617Z,4.60
2018-03-07T23:47:43.507Z,4.20
2018-03-07T23:50:12.318Z,2.27
2018-03-07T23:52:41.116Z,2.70
2018-03-07T23:55:10.003Z,1.80
2018-03-07T23:57:38.883Z,1.80
